全部
Carnarvon Airport (Carnarvon, Western Australia) CVQ 天气
|
Carnarvon, Western Australia (CVQ / YCAR)
晴天
微风 |
|
16 °C |
CVQ终端机场天气预报
| Date | Time (AWST) | Flight Rules | Wind Dir. | Speed | Type | Height AGL (ft) | Visibility | Remarks | ||||||
|---|---|---|---|---|---|---|---|---|---|---|---|---|---|---|
CVQ近期METAR历史数据
| Date | Time (AWST) | Flight Rules | Wind Dir. | Speed | Type | Height AGL (ft) | Visibility | Temp (°C) | Temp (°F) | Dew Point (°C) | Dew Point (°F) | Rel. Humid. | Pressure | Density Altitude | Remarks |
|---|---|---|---|---|---|---|---|---|---|---|---|---|---|---|---|
| 02-五月 | 23:00 | VFR | 160° | 10 kt | 10000 meters | 16° | 60° | -1° | 30° | 31% | 1017 mb | 21 ft | |||
| 02-五月 | 22:00 | VFR | 160° | 10 kt | 10000 meters | 17° | 62° | -1° | 30° | 29% | 1018 mb | 111 ft | |||
| 02-五月 | 21:00 | VFR | 150° | 9 kt | 10000 meters | 16° | 60° | 0° | 32° | 34% | 1017 mb | 21 ft | |||
| 02-五月 | 20:00 | VFR | 160° | 9 kt | 10000 meters | 16° | 60° | 1° | 33° | 36% | 1017 mb | 21 ft | |||
| 02-五月 | 19:00 | VFR | 130° | 9 kt | 10000 meters | 20° | 68° | -1° | 30° | 24% | 1016 mb | 531 ft | |||
| 02-五月 | 18:00 | VFR | 130° | 11 kt | 10000 meters | 22° | 71° | 0° | 32° | 23% | 1015 mb | 800 ft | |||
| 02-五月 | 17:00 | VFR | 140° | 17 kt | 10000 meters | 24° | 75° | 0° | 32° | 20% | 1015 mb | 1,040 ft | |||
| 02-五月 | 16:00 | VFR | 140° | 16 kt | 10000 meters | 25° | 77° | 1° | 33° | 21% | 1015 mb | 1,160 ft | |||
| 02-五月 | 15:00 | VFR | 140° | 17 kt | 10000 meters | 25° | 77° | 3° | 37° | 24% | 1015 mb | 1,160 ft | |||
| 02-五月 | 14:00 | VFR | 140° | 17 kt | 10000 meters | 24° | 75° | 3° | 37° | 25% | 1016 mb | 1,011 ft | |||
| 02-五月 | 13:00 | VFR | 150° | 18 kt | 10000 meters | 23° | 73° | 4° | 39° | 29% | 1017 mb | 861 ft | |||
| 02-五月 | 12:00 | VFR | 140° | 16 kt | 10000 meters | 22° | 71° | 4° | 39° | 31% | 1018 mb | 711 ft | |||
| 02-五月 | 11:00 | VFR | 150° | 15 kt | 10000 meters | 22° | 71° | 5° | 41° | 33% | 1019 mb | 682 ft | |||
| 02-五月 | 10:00 | VFR | 130° | 16 kt | 10000 meters | 21° | 69° | 5° | 41° | 35% | 1019 mb | 562 ft | |||
| 02-五月 | 09:00 | VFR | 130° | 16 kt | 10000 meters | 19° | 66° | 5° | 41° | 40% | 1020 mb | 292 ft | |||
| 02-五月 | 08:00 | VFR | 150° | 11 kt | 10000 meters | 17° | 62° | 6° | 42° | 48% | 1019 mb | 82 ft | |||
| 02-五月 | 07:00 | VFR | 150° | 11 kt | 10000 meters | 16° | 60° | 6° | 42° | 51% | 1018 mb | -9 ft | |||
| 02-五月 | 06:00 | VFR | 150° | 13 kt | 10000 meters | 16° | 60° | 7° | 44° | 55% | 1017 mb | 21 ft | |||
| 02-五月 | 05:00 | VFR | 140° | 14 kt | 10000 meters | 17° | 62° | 7° | 44° | 52% | 1017 mb | 141 ft | |||
| 02-五月 | 04:00 | VFR | 150° | 14 kt | 10000 meters | 17° | 62° | 8° | 46° | 55% | 1017 mb | 141 ft | |||
| 02-五月 | 03:00 | VFR | 150° | 16 kt | 10000 meters | 18° | 64° | 9° | 48° | 56% | 1017 mb | 261 ft | |||
| 02-五月 | 02:00 | VFR | 150° | 15 kt | 10000 meters | 18° | 64° | 9° | 48° | 56% | 1017 mb | 261 ft | |||
| 02-五月 | 01:00 | VFR | 160° | 17 kt | 10000 meters | 19° | 66° | 12° | 53° | 64% | 1018 mb | 351 ft | |||
| 02-五月 | 00:00 | VFR | 160° | 18 kt | 10000 meters | 20° | 68° | 14° | 57° | 68% | 1018 mb | 471 ft |
登录
| 您的浏览器不支持. 升级您的浏览器 |
